createdAt,value
2023-01-28T00:01:15.099Z,101086.32
2023-01-28T00:05:10.858Z,101086.03
2023-01-28T00:09:39.507Z,101084.08
2023-01-28T00:13:35.095Z,101081.38
2023-01-28T00:17:34.841Z,101087.45
2023-01-28T00:21:12.043Z,101093.66
2023-01-28T00:25:08.560Z,101092.21
2023-01-28T00:29:04.623Z,101088.11
2023-01-28T00:33:01.959Z,101089.23
2023-01-28T00:36:58.770Z,101090.60
2023-01-28T02:06:57.057Z,101082.30
2023-01-28T02:21:01.764Z,101084.34
2023-01-28T02:29:47.807Z,101083.23
2023-01-28T02:34:09.769Z,101083.06
2023-01-28T03:02:08.770Z,101091.24
2023-01-28T03:05:04.861Z,101093.05
2023-01-28T03:33:35.725Z,101095.05
2023-01-28T03:36:53.773Z,101090.31
2023-01-28T03:41:02.752Z,101092.55
2023-01-28T03:45:04.185Z,101088.92
2023-01-28T03:48:59.170Z,101091.43
2023-01-28T03:58:54.180Z,101093.66
2023-01-28T04:19:23.583Z,101092.41
2023-01-28T04:22:19.468Z,101098.09
2023-01-28T04:26:33.279Z,101092.02
2023-01-28T04:30:01.151Z,101090.77
2023-01-28T04:59:33.927Z,101103.98
2023-01-28T05:02:32.031Z,101105.02
2023-01-28T05:06:29.246Z,101106.20
2023-01-28T05:10:31.557Z,101105.52
2023-01-28T05:14:05.830Z,101107.14
2023-01-28T05:18:09.740Z,101107.16
2023-01-28T05:21:41.440Z,101101.31
2023-01-28T05:25:38.698Z,101105.77
2023-01-28T05:29:39.152Z,101110.27
2023-01-28T05:33:34.169Z,101114.85
2023-01-28T05:37:35.591Z,101114.92
2023-01-28T05:41:49.632Z,101117.01
2023-01-28T05:45:09.192Z,101120.38
2023-01-28T05:59:58.284Z,101122.95
2023-01-28T06:03:48.679Z,101118.51
2023-01-28T06:07:49.614Z,101120.20
2023-01-28T06:39:23.261Z,101149.16
2023-01-28T06:43:37.278Z,101153.23
2023-01-28T06:47:01.308Z,101156.77
2023-01-28T06:50:55.192Z,101159.68
2023-01-28T06:54:14.713Z,101153.17
2023-01-28T06:59:30.729Z,101158.19
2023-01-28T07:14:15.350Z,101170.17
2023-01-28T07:17:01.988Z,101172.65
2023-01-28T07:19:47.568Z,101170.14
2023-01-28T07:22:33.334Z,101173.52
2023-01-28T07:25:19.152Z,101169.17
2023-01-28T07:31:31.901Z,101174.21
2023-01-28T07:36:01.127Z,101174.94
2023-01-28T08:03:50.037Z,101181.52
2023-01-28T08:17:15.329Z,101180.09
2023-01-28T08:26:42.340Z,101180.85
2023-01-28T08:30:45.322Z,101179.00
2023-01-28T08:33:32.519Z,101185.97
2023-01-28T08:36:19.607Z,101181.67
2023-01-28T08:39:06.458Z,101183.36
2023-01-28T08:41:53.803Z,101179.23
2023-01-28T08:44:40.901Z,101181.83
2023-01-28T08:48:19.521Z,101181.16
2023-01-28T08:51:06.890Z,101181.91
2023-01-28T08:53:54.195Z,101180.34
2023-01-28T08:56:44.828Z,101183.68
2023-01-28T09:10:22.238Z,101190.81
2023-01-28T09:13:14.592Z,101201.87
2023-01-28T09:16:01.005Z,101201.70
2023-01-28T09:18:48.537Z,101204.79
2023-01-28T09:21:35.091Z,101208.56
2023-01-28T09:24:31.642Z,101210.81
2023-01-28T09:29:08.128Z,101214.21
2023-01-28T09:33:41.702Z,101213.05
2023-01-28T09:38:05.190Z,101211.98
2023-01-28T09:42:52.499Z,101215.34
2023-01-28T09:46:12.866Z,101214.03
2023-01-28T09:53:21.556Z,101215.27
2023-01-28T09:57:00.148Z,101209.63
2023-01-28T10:00:43.084Z,101210.48
2023-01-28T10:04:17.624Z,101207.49
2023-01-28T10:08:14.703Z,101200.79
2023-01-28T10:12:51.084Z,101201.36
2023-01-28T10:16:35.104Z,101196.10
2023-01-28T10:31:09.421Z,101193.88
2023-01-28T10:35:23.905Z,101191.26
2023-01-28T10:38:31.198Z,101189.52
2023-01-28T10:53:39.231Z,101183.18
2023-01-28T11:07:04.526Z,101180.57
2023-01-28T11:20:57.918Z,101173.32
2023-01-28T11:24:47.912Z,101166.02
2023-01-28T11:28:48.087Z,101163.06
2023-01-28T11:32:43.062Z,101163.53
2023-01-28T11:36:38.522Z,101157.51
2023-01-28T11:40:35.704Z,101155.73
2023-01-28T11:44:33.396Z,101154.20
2023-01-28T11:48:58.405Z,101143.90
2023-01-28T11:52:25.592Z,101151.66
2023-01-28T11:56:24.018Z,101151.54
2023-01-28T12:00:38.608Z,101152.48
2023-01-28T12:04:51.379Z,101149.77
2023-01-28T12:09:24.593Z,101147.77
2023-01-28T12:12:43.180Z,101150.84
2023-01-28T12:16:41.901Z,101147.02
2023-01-28T12:21:12.004Z,101143.71
2023-01-28T12:25:52.151Z,101143.67
2023-01-28T12:30:12.742Z,101145.38
2023-01-28T12:34:45.774Z,101148.20
2023-01-28T12:39:06.353Z,101145.43
2023-01-28T12:43:16.731Z,101143.94
2023-01-28T12:46:10.735Z,101141.13
2023-01-28T12:49:05.398Z,101145.02
2023-01-28T12:52:37.273Z,101142.35
2023-01-28T12:55:41.509Z,101143.17
2023-01-28T12:58:39.034Z,101149.69
2023-01-28T13:02:12.164Z,101151.52
2023-01-28T13:05:27.417Z,101157.74
2023-01-28T13:08:22.229Z,101152.09
2023-01-28T13:11:49.900Z,101147.08
2023-01-28T13:15:03.879Z,101146.23
2023-01-28T13:18:42.152Z,101146.71
2023-01-28T13:22:35.956Z,101146.83
2023-01-28T13:37:32.675Z,101147.41
2023-01-28T13:40:36.462Z,101155.44
2023-01-28T14:27:25.768Z,101150.92
2023-01-28T14:30:24.721Z,101149.20
2023-01-28T14:33:12.983Z,101150.13
2023-01-28T14:40:40.186Z,101156.40
2023-01-28T14:45:13.833Z,101152.30
2023-01-28T14:48:22.066Z,101159.70
2023-01-28T14:51:17.511Z,101157.58
2023-01-28T14:54:22.426Z,101159.48
2023-01-28T14:57:27.739Z,101157.23
2023-01-28T15:00:34.814Z,101152.66
2023-01-28T15:04:01.719Z,101153.91
2023-01-28T15:07:57.687Z,101156.14
2023-01-28T15:11:57.034Z,101163.30
2023-01-28T15:14:47.358Z,101165.70
2023-01-28T15:17:34.573Z,101167.96
2023-01-28T15:20:24.413Z,101167.58
2023-01-28T15:26:17.388Z,101172.77
2023-01-28T15:29:03.995Z,101177.85
2023-01-28T15:31:51.242Z,101178.83
2023-01-28T15:46:39.791Z,101180.30
2023-01-28T15:49:33.108Z,101183.11
2023-01-28T15:52:21.212Z,101186.88
2023-01-28T15:55:29.730Z,101186.24
2023-01-28T15:58:19.522Z,101185.23
2023-01-28T16:04:25.280Z,101181.52
2023-01-28T16:07:11.999Z,101179.42
2023-01-28T16:10:02.085Z,101186.65
2023-01-28T16:12:53.001Z,101187.63
2023-01-28T16:15:48.861Z,101191.71
2023-01-28T16:18:55.775Z,101193.72
2023-01-28T16:21:48.957Z,101197.65
2023-01-28T16:24:36.540Z,101194.21
2023-01-28T16:27:24.577Z,101195.70
2023-01-28T16:30:11.943Z,101198.91
2023-01-28T16:32:58.502Z,101193.58
2023-01-28T16:36:04.453Z,101187.10
2023-01-28T16:40:15.493Z,101190.61
2023-01-28T16:45:27.857Z,101199.45
2023-01-28T16:49:13.730Z,101192.14
2023-01-28T16:52:01.241Z,101197.36
2023-01-28T16:54:56.349Z,101201.16
2023-01-28T16:57:43.797Z,101199.60
2023-01-28T17:00:33.284Z,101199.92
2023-01-28T17:04:11.791Z,101202.46
2023-01-28T17:06:59.070Z,101197.58
2023-01-28T17:09:47.810Z,101194.60
2023-01-28T17:12:36.592Z,101199.67
2023-01-28T17:15:23.270Z,101202.37
2023-01-28T17:18:20.709Z,101197.61
2023-01-28T17:22:38.810Z,101190.02
2023-01-28T17:25:53.510Z,101191.61
2023-01-28T17:29:55.724Z,101196.53
2023-01-28T17:33:57.088Z,101193.69
2023-01-28T17:37:55.221Z,101199.89
2023-01-28T17:41:52.172Z,101210.14
2023-01-28T17:46:12.053Z,101208.26
2023-01-28T17:49:30.694Z,101205.45
2023-01-28T17:53:06.299Z,101208.45
2023-01-28T17:57:06.258Z,101214.27
2023-01-28T18:00:46.139Z,101215.02
2023-01-28T18:04:22.966Z,101211.84
2023-01-28T18:07:54.399Z,101204.95
2023-01-28T18:22:19.245Z,101225.23
2023-01-28T18:25:06.122Z,101228.27
2023-01-28T18:27:59.862Z,101233.56
2023-01-28T18:30:46.512Z,101241.93
2023-01-28T18:35:41.831Z,101250.45
2023-01-28T18:38:56.227Z,101253.15
2023-01-28T18:42:52.064Z,101245.37
2023-01-28T18:57:15.905Z,101237.84
2023-01-28T19:00:02.695Z,101233.30
2023-01-28T19:02:50.655Z,101231.38
2023-01-28T19:05:40.444Z,101232.84
2023-01-28T19:08:27.445Z,101232.70
2023-01-28T19:11:14.191Z,101229.71
2023-01-28T19:14:01.196Z,101230.82
2023-01-28T19:16:48.541Z,101226.55
2023-01-28T19:19:35.054Z,101232.30
2023-01-28T19:22:45.709Z,101235.53
2023-01-28T19:25:45.659Z,101235.62
2023-01-28T19:28:33.187Z,101235.67
2023-01-28T19:31:21.514Z,101233.16
2023-01-28T19:34:10.477Z,101238.42
2023-01-28T19:36:57.105Z,101236.68
2023-01-28T19:39:44.104Z,101232.13
2023-01-28T19:42:30.663Z,101238.80
2023-01-28T19:45:17.702Z,101244.21
2023-01-28T19:48:05.080Z,101248.70
2023-01-28T19:50:51.768Z,101251.80
2023-01-28T19:53:39.859Z,101251.00
2023-01-28T19:56:27.421Z,101252.39
2023-01-28T19:59:15.113Z,101252.64
2023-01-28T20:02:01.386Z,101255.42
2023-01-28T20:05:00.109Z,101258.52
2023-01-28T20:07:47.316Z,101261.52
2023-01-28T20:10:36.938Z,101268.52
2023-01-28T20:13:23.224Z,101265.84
2023-01-28T20:16:19.144Z,101258.27
2023-01-28T20:19:08.211Z,101257.17
2023-01-28T20:21:55.060Z,101259.33
2023-01-28T20:24:41.282Z,101261.94
2023-01-28T20:27:29.025Z,101261.17
2023-01-28T20:30:16.161Z,101260.96
2023-01-28T20:33:02.902Z,101261.89
2023-01-28T20:35:50.136Z,101261.77
2023-01-28T20:38:46.433Z,101268.86
2023-01-28T20:41:32.865Z,101275.48
2023-01-28T20:44:19.534Z,101269.00
2023-01-28T20:47:06.217Z,101273.63
2023-01-28T20:49:53.078Z,101279.83
2023-01-28T20:52:39.770Z,101281.89
2023-01-28T20:55:28.464Z,101279.55
2023-01-28T20:58:15.380Z,101278.86
2023-01-28T21:01:02.785Z,101279.09
2023-01-28T21:03:49.564Z,101283.81
2023-01-28T21:06:36.629Z,101287.84
2023-01-28T21:09:25.368Z,101289.10
2023-01-28T21:12:11.995Z,101293.63
2023-01-28T21:14:59.079Z,101287.29
2023-01-28T21:17:45.672Z,101289.33
2023-01-28T21:20:33.761Z,101285.45
2023-01-28T21:23:23.437Z,101291.52
2023-01-28T21:26:15.997Z,101290.27
2023-01-28T21:29:04.594Z,101281.99
2023-01-28T21:31:51.327Z,101276.42
2023-01-28T21:34:38.162Z,101266.81
2023-01-28T21:37:28.628Z,101270.48
2023-01-28T21:40:15.750Z,101262.11
2023-01-28T21:43:05.351Z,101261.33
2023-01-28T21:45:55.618Z,101260.84
2023-01-28T21:48:43.151Z,101264.60
2023-01-28T21:51:45.786Z,101264.70
2023-01-28T21:54:32.334Z,101259.77
2023-01-28T21:57:19.416Z,101244.46
2023-01-28T22:00:06.487Z,101252.54
2023-01-28T22:02:53.034Z,101253.73
2023-01-28T22:05:39.426Z,101254.38
2023-01-28T22:08:26.199Z,101251.77
2023-01-28T22:11:13.268Z,101243.55
2023-01-28T22:13:59.783Z,101236.46
2023-01-28T22:16:48.474Z,101236.86
2023-01-28T22:19:35.431Z,101225.34
2023-01-28T22:22:21.819Z,101221.41
2023-01-28T22:25:08.951Z,101228.80
2023-01-28T22:27:55.465Z,101226.89
2023-01-28T22:30:41.761Z,101227.64
2023-01-28T22:33:28.022Z,101226.65
2023-01-28T22:36:16.029Z,101224.55
2023-01-28T22:39:04.937Z,101228.30
2023-01-28T22:41:51.614Z,101237.48
2023-01-28T22:44:38.205Z,101238.70
2023-01-28T22:47:24.719Z,101236.08
2023-01-28T22:50:11.659Z,101237.25
2023-01-28T22:52:57.993Z,101244.09
2023-01-28T22:55:44.678Z,101251.38
2023-01-28T22:58:32.032Z,101255.45
2023-01-28T23:01:19.117Z,101258.12
2023-01-28T23:04:05.729Z,101266.29
2023-01-28T23:06:52.477Z,101278.09
2023-01-28T23:09:39.564Z,101276.02
2023-01-28T23:12:26.204Z,101281.05
2023-01-28T23:15:32.042Z,101283.92
2023-01-28T23:18:40.077Z,101283.27
2023-01-28T23:21:46.749Z,101279.40
2023-01-28T23:24:33.526Z,101275.95
2023-01-28T23:27:20.071Z,101272.34
2023-01-28T23:30:10.233Z,101266.83
2023-01-28T23:32:59.124Z,101263.05
2023-01-28T23:35:45.867Z,101255.84
2023-01-28T23:38:32.243Z,101251.70
2023-01-28T23:41:19.297Z,101257.19
2023-01-28T23:44:06.140Z,101252.23
2023-01-28T23:46:54.701Z,101251.02
2023-01-28T23:49:43.699Z,101246.55
2023-01-28T23:52:30.828Z,101239.57
2023-01-28T23:55:17.251Z,101244.42
2023-01-28T23:58:03.876Z,101243.36
